sensor_id;sensor_type;location;lat;lon;timestamp;P1;durP1;ratioP1;P2;durP2;ratioP2
56171;SDS011;42052;41.634;-0.946;2023-06-26T00:02:05;3.95;;;3.38;;
56171;SDS011;42052;41.634;-0.946;2023-06-26T00:04:51;3.88;;;3.17;;
56171;SDS011;42052;41.634;-0.946;2023-06-26T00:07:40;5.13;;;3.50;;
56171;SDS011;42052;41.634;-0.946;2023-06-26T00:10:26;4.32;;;3.40;;
56171;SDS011;42052;41.634;-0.946;2023-06-26T00:13:13;3.83;;;3.03;;
56171;SDS011;42052;41.634;-0.946;2023-06-26T00:15:59;3.60;;;3.10;;
56171;SDS011;42052;41.634;-0.946;2023-06-26T00:18:48;3.63;;;3.13;;
56171;SDS011;42052;41.634;-0.946;2023-06-26T00:21:34;3.20;;;2.90;;
56171;SDS011;42052;41.634;-0.946;2023-06-26T00:24:20;3.85;;;3.30;;
56171;SDS011;42052;41.634;-0.946;2023-06-26T00:27:07;4.88;;;3.30;;
56171;SDS011;42052;41.634;-0.946;2023-06-26T00:29:53;4.50;;;3.03;;
56171;SDS011;42052;41.634;-0.946;2023-06-26T00:32:39;4.13;;;3.28;;
56171;SDS011;42052;41.634;-0.946;2023-06-26T00:35:25;4.95;;;3.22;;
56171;SDS011;42052;41.634;-0.946;2023-06-26T00:38:11;6.35;;;3.20;;
56171;SDS011;42052;41.634;-0.946;2023-06-26T00:40:57;4.25;;;3.30;;
56171;SDS011;42052;41.634;-0.946;2023-06-26T00:43:43;4.05;;;3.30;;
56171;SDS011;42052;41.634;-0.946;2023-06-26T00:46:29;3.95;;;3.10;;
56171;SDS011;42052;41.634;-0.946;2023-06-26T00:49:17;3.80;;;3.40;;
56171;SDS011;42052;41.634;-0.946;2023-06-26T00:52:03;3.55;;;3.25;;
56171;SDS011;42052;41.634;-0.946;2023-06-26T00:54:50;3.45;;;3.15;;
56171;SDS011;42052;41.634;-0.946;2023-06-26T00:57:39;3.50;;;3.20;;
56171;SDS011;42052;41.634;-0.946;2023-06-26T01:00:25;3.42;;;3.13;;
56171;SDS011;42052;41.634;-0.946;2023-06-26T01:03:11;4.72;;;3.28;;
56171;SDS011;42052;41.634;-0.946;2023-06-26T01:05:57;4.13;;;3.13;;
56171;SDS011;42052;41.634;-0.946;2023-06-26T01:08:45;3.85;;;3.30;;
56171;SDS011;42052;41.634;-0.946;2023-06-26T01:11:31;3.90;;;3.00;;
56171;SDS011;42052;41.634;-0.946;2023-06-26T01:14:18;3.63;;;3.15;;
56171;SDS011;42052;41.634;-0.946;2023-06-26T01:17:04;3.95;;;3.15;;
56171;SDS011;42052;41.634;-0.946;2023-06-26T01:19:51;3.25;;;2.88;;
56171;SDS011;42052;41.634;-0.946;2023-06-26T01:22:39;3.90;;;3.10;;
56171;SDS011;42052;41.634;-0.946;2023-06-26T01:29:03;3.72;;;3.10;;
56171;SDS011;42052;41.634;-0.946;2023-06-26T01:31:51;3.17;;;2.88;;
56171;SDS011;42052;41.634;-0.946;2023-06-26T01:34:37;4.05;;;3.00;;
56171;SDS011;42052;41.634;-0.946;2023-06-26T01:37:24;3.55;;;2.90;;
56171;SDS011;42052;41.634;-0.946;2023-06-26T01:40:10;4.13;;;3.28;;
56171;SDS011;42052;41.634;-0.946;2023-06-26T01:42:56;4.65;;;3.10;;
56171;SDS011;42052;41.634;-0.946;2023-06-26T01:45:44;3.97;;;3.05;;
56171;SDS011;42052;41.634;-0.946;2023-06-26T01:48:34;3.97;;;3.38;;
56171;SDS011;42052;41.634;-0.946;2023-06-26T01:51:37;4.43;;;3.72;;
56171;SDS011;42052;41.634;-0.946;2023-06-26T01:54:27;4.28;;;3.33;;
56171;SDS011;42052;41.634;-0.946;2023-06-26T01:57:17;6.88;;;3.95;;
56171;SDS011;42052;41.634;-0.946;2023-06-26T02:00:05;6.25;;;3.40;;
56171;SDS011;42052;41.634;-0.946;2023-06-26T02:02:55;4.43;;;3.50;;
56171;SDS011;42052;41.634;-0.946;2023-06-26T02:05:42;7.32;;;3.83;;
56171;SDS011;42052;41.634;-0.946;2023-06-26T02:08:29;4.70;;;3.20;;
56171;SDS011;42052;41.634;-0.946;2023-06-26T02:11:15;5.25;;;3.80;;
56171;SDS011;42052;41.634;-0.946;2023-06-26T02:14:01;6.10;;;3.70;;
56171;SDS011;42052;41.634;-0.946;2023-06-26T02:16:48;5.18;;;3.55;;
56171;SDS011;42052;41.634;-0.946;2023-06-26T02:19:34;8.10;;;3.80;;
56171;SDS011;42052;41.634;-0.946;2023-06-26T02:22:20;6.60;;;3.70;;
56171;SDS011;42052;41.634;-0.946;2023-06-26T02:25:06;6.95;;;4.00;;
56171;SDS011;42052;41.634;-0.946;2023-06-26T02:27:53;6.88;;;3.78;;
56171;SDS011;42052;41.634;-0.946;2023-06-26T02:30:40;5.63;;;3.92;;
56171;SDS011;42052;41.634;-0.946;2023-06-26T02:33:26;8.40;;;4.07;;
56171;SDS011;42052;41.634;-0.946;2023-06-26T02:36:12;6.18;;;3.80;;
56171;SDS011;42052;41.634;-0.946;2023-06-26T02:38:58;4.88;;;3.42;;
56171;SDS011;42052;41.634;-0.946;2023-06-26T02:41:44;4.85;;;3.53;;
56171;SDS011;42052;41.634;-0.946;2023-06-26T02:44:30;5.47;;;3.95;;
56171;SDS011;42052;41.634;-0.946;2023-06-26T02:47:16;6.47;;;3.70;;
56171;SDS011;42052;41.634;-0.946;2023-06-26T02:50:02;6.50;;;3.88;;
56171;SDS011;42052;41.634;-0.946;2023-06-26T02:52:49;5.15;;;3.75;;
56171;SDS011;42052;41.634;-0.946;2023-06-26T02:55:37;5.10;;;3.75;;
56171;SDS011;42052;41.634;-0.946;2023-06-26T02:58:23;7.70;;;3.80;;
56171;SDS011;42052;41.634;-0.946;2023-06-26T03:01:10;6.00;;;3.63;;
56171;SDS011;42052;41.634;-0.946;2023-06-26T03:03:56;7.38;;;3.92;;
56171;SDS011;42052;41.634;-0.946;2023-06-26T03:06:42;5.57;;;3.63;;
56171;SDS011;42052;41.634;-0.946;2023-06-26T03:09:28;6.80;;;3.80;;
56171;SDS011;42052;41.634;-0.946;2023-06-26T03:12:14;7.05;;;3.78;;
56171;SDS011;42052;41.634;-0.946;2023-06-26T03:15:00;6.65;;;3.60;;
56171;SDS011;42052;41.634;-0.946;2023-06-26T03:17:46;4.70;;;3.60;;
56171;SDS011;42052;41.634;-0.946;2023-06-26T03:20:32;5.72;;;3.85;;
56171;SDS011;42052;41.634;-0.946;2023-06-26T03:23:18;7.50;;;3.78;;
56171;SDS011;42052;41.634;-0.946;2023-06-26T03:26:04;6.18;;;3.85;;
56171;SDS011;42052;41.634;-0.946;2023-06-26T03:28:50;7.53;;;3.55;;
56171;SDS011;42052;41.634;-0.946;2023-06-26T03:31:36;5.20;;;3.45;;
56171;SDS011;42052;41.634;-0.946;2023-06-26T03:34:23;4.88;;;3.55;;
56171;SDS011;42052;41.634;-0.946;2023-06-26T03:37:09;5.47;;;3.78;;
56171;SDS011;42052;41.634;-0.946;2023-06-26T03:39:55;6.00;;;4.15;;
56171;SDS011;42052;41.634;-0.946;2023-06-26T03:42:41;7.25;;;3.67;;
56171;SDS011;42052;41.634;-0.946;2023-06-26T03:45:27;5.63;;;3.90;;
56171;SDS011;42052;41.634;-0.946;2023-06-26T03:48:14;7.53;;;4.00;;
56171;SDS011;42052;41.634;-0.946;2023-06-26T03:51:00;8.13;;;4.35;;
56171;SDS011;42052;41.634;-0.946;2023-06-26T03:53:47;6.32;;;3.80;;
56171;SDS011;42052;41.634;-0.946;2023-06-26T03:56:33;6.15;;;4.00;;
56171;SDS011;42052;41.634;-0.946;2023-06-26T03:59:19;7.07;;;4.32;;
56171;SDS011;42052;41.634;-0.946;2023-06-26T04:02:05;6.80;;;4.32;;
56171;SDS011;42052;41.634;-0.946;2023-06-26T04:04:51;6.80;;;4.32;;
56171;SDS011;42052;41.634;-0.946;2023-06-26T04:07:38;6.22;;;4.28;;
56171;SDS011;42052;41.634;-0.946;2023-06-26T04:10:24;6.25;;;4.40;;
56171;SDS011;42052;41.634;-0.946;2023-06-26T04:13:10;7.35;;;4.05;;
56171;SDS011;42052;41.634;-0.946;2023-06-26T04:15:56;6.75;;;4.15;;
56171;SDS011;42052;41.634;-0.946;2023-06-26T04:18:42;7.82;;;4.15;;
56171;SDS011;42052;41.634;-0.946;2023-06-26T04:21:28;6.97;;;3.92;;
56171;SDS011;42052;41.634;-0.946;2023-06-26T04:24:14;7.78;;;4.25;;
56171;SDS011;42052;41.634;-0.946;2023-06-26T04:27:00;7.95;;;4.40;;
56171;SDS011;42052;41.634;-0.946;2023-06-26T04:29:46;9.43;;;4.40;;
56171;SDS011;42052;41.634;-0.946;2023-06-26T04:32:32;6.10;;;4.28;;
56171;SDS011;42052;41.634;-0.946;2023-06-26T04:35:19;8.38;;;4.65;;
56171;SDS011;42052;41.634;-0.946;2023-06-26T04:38:06;5.63;;;4.28;;
56171;SDS011;42052;41.634;-0.946;2023-06-26T04:40:52;7.70;;;4.40;;
56171;SDS011;42052;41.634;-0.946;2023-06-26T04:43:38;7.63;;;4.75;;
56171;SDS011;42052;41.634;-0.946;2023-06-26T04:46:24;6.70;;;3.88;;
56171;SDS011;42052;41.634;-0.946;2023-06-26T04:49:13;6.65;;;4.53;;
56171;SDS011;42052;41.634;-0.946;2023-06-26T04:52:03;9.43;;;3.90;;
56171;SDS011;42052;41.634;-0.946;2023-06-26T04:54:49;5.25;;;4.10;;
56171;SDS011;42052;41.634;-0.946;2023-06-26T04:57:35;5.43;;;3.83;;
56171;SDS011;42052;41.634;-0.946;2023-06-26T05:00:21;7.80;;;4.40;;
56171;SDS011;42052;41.634;-0.946;2023-06-26T05:03:11;7.45;;;4.10;;
56171;SDS011;42052;41.634;-0.946;2023-06-26T05:05:58;7.70;;;4.28;;
56171;SDS011;42052;41.634;-0.946;2023-06-26T05:08:44;5.55;;;3.83;;
56171;SDS011;42052;41.634;-0.946;2023-06-26T05:11:30;11.20;;;4.43;;
56171;SDS011;42052;41.634;-0.946;2023-06-26T05:14:16;20.35;;;5.95;;
56171;SDS011;42052;41.634;-0.946;2023-06-26T05:17:02;20.90;;;7.32;;
56171;SDS011;42052;41.634;-0.946;2023-06-26T05:19:48;23.33;;;7.47;;
56171;SDS011;42052;41.634;-0.946;2023-06-26T05:22:34;20.65;;;7.00;;
56171;SDS011;42052;41.634;-0.946;2023-06-26T05:25:24;23.25;;;6.60;;
56171;SDS011;42052;41.634;-0.946;2023-06-26T05:28:12;18.00;;;6.40;;
56171;SDS011;42052;41.634;-0.946;2023-06-26T05:31:00;17.80;;;6.38;;
56171;SDS011;42052;41.634;-0.946;2023-06-26T05:33:48;18.42;;;6.20;;
56171;SDS011;42052;41.634;-0.946;2023-06-26T05:36:35;13.25;;;5.40;;
56171;SDS011;42052;41.634;-0.946;2023-06-26T05:39:21;17.42;;;6.10;;
56171;SDS011;42052;41.634;-0.946;2023-06-26T05:42:08;14.23;;;5.53;;
56171;SDS011;42052;41.634;-0.946;2023-06-26T05:44:55;13.40;;;5.32;;
56171;SDS011;42052;41.634;-0.946;2023-06-26T05:47:42;13.00;;;5.07;;
56171;SDS011;42052;41.634;-0.946;2023-06-26T05:50:28;11.10;;;5.18;;
56171;SDS011;42052;41.634;-0.946;2023-06-26T05:53:15;10.82;;;4.82;;
56171;SDS011;42052;41.634;-0.946;2023-06-26T05:56:01;10.20;;;4.85;;
56171;SDS011;42052;41.634;-0.946;2023-06-26T05:58:48;10.38;;;4.95;;
56171;SDS011;42052;41.634;-0.946;2023-06-26T06:01:35;9.55;;;5.05;;
56171;SDS011;42052;41.634;-0.946;2023-06-26T06:04:21;12.48;;;5.20;;
56171;SDS011;42052;41.634;-0.946;2023-06-26T06:07:08;11.93;;;5.13;;
56171;SDS011;42052;41.634;-0.946;2023-06-26T06:09:54;11.57;;;5.15;;
56171;SDS011;42052;41.634;-0.946;2023-06-26T06:12:40;10.23;;;5.10;;
56171;SDS011;42052;41.634;-0.946;2023-06-26T06:15:26;8.60;;;4.68;;
56171;SDS011;42052;41.634;-0.946;2023-06-26T06:18:12;8.27;;;4.50;;
56171;SDS011;42052;41.634;-0.946;2023-06-26T06:20:58;8.68;;;4.55;;
56171;SDS011;42052;41.634;-0.946;2023-06-26T06:23:44;8.32;;;4.50;;
56171;SDS011;42052;41.634;-0.946;2023-06-26T06:26:31;10.80;;;4.53;;
56171;SDS011;42052;41.634;-0.946;2023-06-26T06:29:17;9.50;;;4.68;;
56171;SDS011;42052;41.634;-0.946;2023-06-26T06:32:04;11.55;;;4.57;;
56171;SDS011;42052;41.634;-0.946;2023-06-26T06:34:51;9.20;;;4.60;;
56171;SDS011;42052;41.634;-0.946;2023-06-26T06:37:37;9.73;;;4.78;;
56171;SDS011;42052;41.634;-0.946;2023-06-26T06:40:24;7.72;;;4.47;;
56171;SDS011;42052;41.634;-0.946;2023-06-26T06:43:11;9.90;;;4.30;;
56171;SDS011;42052;41.634;-0.946;2023-06-26T06:45:57;8.70;;;4.43;;
56171;SDS011;42052;41.634;-0.946;2023-06-26T06:48:43;9.55;;;4.40;;
56171;SDS011;42052;41.634;-0.946;2023-06-26T06:51:29;6.88;;;4.13;;
56171;SDS011;42052;41.634;-0.946;2023-06-26T06:54:15;8.35;;;4.25;;
56171;SDS011;42052;41.634;-0.946;2023-06-26T06:57:02;8.43;;;4.32;;
56171;SDS011;42052;41.634;-0.946;2023-06-26T06:59:48;7.43;;;4.18;;
56171;SDS011;42052;41.634;-0.946;2023-06-26T07:02:35;6.75;;;3.90;;
56171;SDS011;42052;41.634;-0.946;2023-06-26T07:05:22;8.65;;;4.07;;
56171;SDS011;42052;41.634;-0.946;2023-06-26T07:08:08;8.23;;;4.40;;
56171;SDS011;42052;41.634;-0.946;2023-06-26T07:10:54;7.15;;;3.88;;
56171;SDS011;42052;41.634;-0.946;2023-06-26T07:13:42;7.50;;;4.18;;
56171;SDS011;42052;41.634;-0.946;2023-06-26T07:16:28;6.22;;;3.80;;
56171;SDS011;42052;41.634;-0.946;2023-06-26T07:19:14;7.40;;;4.10;;
56171;SDS011;42052;41.634;-0.946;2023-06-26T07:22:00;6.95;;;3.95;;
56171;SDS011;42052;41.634;-0.946;2023-06-26T07:24:46;6.07;;;4.05;;
56171;SDS011;42052;41.634;-0.946;2023-06-26T07:27:33;7.05;;;3.70;;
56171;SDS011;42052;41.634;-0.946;2023-06-26T07:30:19;7.78;;;3.75;;
56171;SDS011;42052;41.634;-0.946;2023-06-26T07:33:05;6.00;;;3.42;;
56171;SDS011;42052;41.634;-0.946;2023-06-26T07:35:51;9.57;;;3.85;;
56171;SDS011;42052;41.634;-0.946;2023-06-26T07:38:37;6.15;;;3.63;;
56171;SDS011;42052;41.634;-0.946;2023-06-26T07:41:23;7.07;;;3.80;;
56171;SDS011;42052;41.634;-0.946;2023-06-26T07:44:09;5.35;;;3.00;;
56171;SDS011;42052;41.634;-0.946;2023-06-26T07:46:55;6.68;;;3.70;;
56171;SDS011;42052;41.634;-0.946;2023-06-26T07:49:41;6.13;;;3.40;;
56171;SDS011;42052;41.634;-0.946;2023-06-26T07:52:27;4.35;;;3.22;;
56171;SDS011;42052;41.634;-0.946;2023-06-26T07:55:15;5.05;;;3.33;;
56171;SDS011;42052;41.634;-0.946;2023-06-26T07:58:01;5.15;;;3.30;;
56171;SDS011;42052;41.634;-0.946;2023-06-26T08:00:47;6.63;;;3.53;;
56171;SDS011;42052;41.634;-0.946;2023-06-26T08:03:33;6.60;;;3.53;;
56171;SDS011;42052;41.634;-0.946;2023-06-26T08:06:19;5.10;;;3.38;;
56171;SDS011;42052;41.634;-0.946;2023-06-26T08:09:06;4.82;;;3.00;;
56171;SDS011;42052;41.634;-0.946;2023-06-26T08:11:53;5.00;;;3.17;;
56171;SDS011;42052;41.634;-0.946;2023-06-26T08:14:39;5.30;;;3.28;;
56171;SDS011;42052;41.634;-0.946;2023-06-26T08:17:25;5.10;;;3.22;;
56171;SDS011;42052;41.634;-0.946;2023-06-26T08:20:11;4.80;;;3.30;;
56171;SDS011;42052;41.634;-0.946;2023-06-26T08:22:57;6.13;;;3.20;;
56171;SDS011;42052;41.634;-0.946;2023-06-26T08:25:43;4.95;;;3.28;;
56171;SDS011;42052;41.634;-0.946;2023-06-26T08:28:29;4.75;;;3.00;;
56171;SDS011;42052;41.634;-0.946;2023-06-26T08:31:16;4.65;;;3.22;;
56171;SDS011;42052;41.634;-0.946;2023-06-26T08:34:02;5.20;;;3.20;;
56171;SDS011;42052;41.634;-0.946;2023-06-26T08:36:49;5.88;;;3.20;;
56171;SDS011;42052;41.634;-0.946;2023-06-26T08:39:37;4.85;;;3.10;;
56171;SDS011;42052;41.634;-0.946;2023-06-26T08:42:23;5.03;;;3.25;;
56171;SDS011;42052;41.634;-0.946;2023-06-26T08:45:10;3.85;;;2.92;;
56171;SDS011;42052;41.634;-0.946;2023-06-26T08:47:57;5.13;;;3.00;;
56171;SDS011;42052;41.634;-0.946;2023-06-26T08:50:47;3.55;;;2.70;;
56171;SDS011;42052;41.634;-0.946;2023-06-26T08:53:40;4.32;;;3.10;;
56171;SDS011;42052;41.634;-0.946;2023-06-26T08:56:54;3.92;;;2.90;;
56171;SDS011;42052;41.634;-0.946;2023-06-26T08:59:41;3.60;;;2.90;;
56171;SDS011;42052;41.634;-0.946;2023-06-26T09:02:28;4.43;;;2.78;;
56171;SDS011;42052;41.634;-0.946;2023-06-26T09:05:14;4.25;;;2.80;;
56171;SDS011;42052;41.634;-0.946;2023-06-26T09:08:00;3.88;;;2.70;;
56171;SDS011;42052;41.634;-0.946;2023-06-26T09:10:46;4.90;;;2.70;;
56171;SDS011;42052;41.634;-0.946;2023-06-26T09:13:32;4.63;;;2.85;;
56171;SDS011;42052;41.634;-0.946;2023-06-26T09:16:23;3.53;;;2.45;;
56171;SDS011;42052;41.634;-0.946;2023-06-26T09:19:12;3.40;;;2.83;;
56171;SDS011;42052;41.634;-0.946;2023-06-26T09:21:58;4.72;;;2.65;;
56171;SDS011;42052;41.634;-0.946;2023-06-26T09:24:44;5.00;;;3.00;;
56171;SDS011;42052;41.634;-0.946;2023-06-26T09:27:31;3.10;;;2.70;;
56171;SDS011;42052;41.634;-0.946;2023-06-26T09:30:17;4.43;;;2.60;;
56171;SDS011;42052;41.634;-0.946;2023-06-26T09:33:13;4.22;;;2.70;;
56171;SDS011;42052;41.634;-0.946;2023-06-26T09:36:05;3.75;;;2.50;;
56171;SDS011;42052;41.634;-0.946;2023-06-26T09:38:52;3.50;;;2.60;;
56171;SDS011;42052;41.634;-0.946;2023-06-26T09:41:38;3.13;;;2.60;;
56171;SDS011;42052;41.634;-0.946;2023-06-26T09:44:25;3.10;;;2.53;;
56171;SDS011;42052;41.634;-0.946;2023-06-26T09:47:11;3.75;;;2.58;;
56171;SDS011;42052;41.634;-0.946;2023-06-26T09:49:58;3.67;;;2.60;;
56171;SDS011;42052;41.634;-0.946;2023-06-26T09:52:44;4.80;;;2.72;;
56171;SDS011;42052;41.634;-0.946;2023-06-26T09:55:33;2.92;;;2.30;;
56171;SDS011;42052;41.634;-0.946;2023-06-26T09:58:21;3.80;;;2.40;;
56171;SDS011;42052;41.634;-0.946;2023-06-26T10:01:09;3.40;;;2.30;;
56171;SDS011;42052;41.634;-0.946;2023-06-26T10:03:55;3.20;;;2.40;;
56171;SDS011;42052;41.634;-0.946;2023-06-26T10:06:45;3.78;;;2.47;;
56171;SDS011;42052;41.634;-0.946;2023-06-26T10:09:36;3.45;;;2.53;;
56171;SDS011;42052;41.634;-0.946;2023-06-26T10:12:30;4.20;;;2.78;;
56171;SDS011;42052;41.634;-0.946;2023-06-26T10:15:16;3.08;;;2.50;;
56171;SDS011;42052;41.634;-0.946;2023-06-26T10:18:05;3.28;;;2.47;;
56171;SDS011;42052;41.634;-0.946;2023-06-26T10:20:51;2.45;;;2.13;;
56171;SDS011;42052;41.634;-0.946;2023-06-26T10:23:41;3.30;;;2.47;;
56171;SDS011;42052;41.634;-0.946;2023-06-26T10:26:29;4.13;;;2.40;;
56171;SDS011;42052;41.634;-0.946;2023-06-26T10:29:17;4.10;;;2.30;;
56171;SDS011;42052;41.634;-0.946;2023-06-26T10:32:06;3.03;;;2.40;;
56171;SDS011;42052;41.634;-0.946;2023-06-26T10:34:56;2.38;;;2.17;;
56171;SDS011;42052;41.634;-0.946;2023-06-26T10:37:47;3.72;;;2.35;;
56171;SDS011;42052;41.634;-0.946;2023-06-26T10:40:47;2.97;;;2.33;;
56171;SDS011;42052;41.634;-0.946;2023-06-26T10:43:34;2.60;;;2.25;;
56171;SDS011;42052;41.634;-0.946;2023-06-26T10:46:20;2.97;;;1.95;;
56171;SDS011;42052;41.634;-0.946;2023-06-26T10:49:07;2.72;;;2.17;;
56171;SDS011;42052;41.634;-0.946;2023-06-26T10:52:00;2.70;;;2.25;;
56171;SDS011;42052;41.634;-0.946;2023-06-26T10:54:47;2.40;;;1.90;;
56171;SDS011;42052;41.634;-0.946;2023-06-26T10:57:33;2.72;;;2.10;;
56171;SDS011;42052;41.634;-0.946;2023-06-26T11:00:21;3.35;;;1.98;;
56171;SDS011;42052;41.634;-0.946;2023-06-26T11:03:22;2.33;;;2.13;;
56171;SDS011;42052;41.634;-0.946;2023-06-26T11:06:12;3.15;;;2.30;;
56171;SDS011;42052;41.634;-0.946;2023-06-26T11:09:07;3.72;;;2.15;;
56171;SDS011;42052;41.634;-0.946;2023-06-26T11:11:56;2.22;;;2.03;;
56171;SDS011;42052;41.634;-0.946;2023-06-26T11:14:44;2.17;;;1.90;;
56171;SDS011;42052;41.634;-0.946;2023-06-26T11:17:31;2.53;;;2.05;;
56171;SDS011;42052;41.634;-0.946;2023-06-26T11:20:17;2.63;;;2.22;;
56171;SDS011;42052;41.634;-0.946;2023-06-26T11:23:04;2.33;;;1.90;;
56171;SDS011;42052;41.634;-0.946;2023-06-26T11:25:54;2.33;;;2.00;;
56171;SDS011;42052;41.634;-0.946;2023-06-26T11:28:45;2.33;;;1.98;;
56171;SDS011;42052;41.634;-0.946;2023-06-26T11:31:40;2.35;;;2.13;;
56171;SDS011;42052;41.634;-0.946;2023-06-26T11:34:29;2.50;;;1.90;;
56171;SDS011;42052;41.634;-0.946;2023-06-26T11:37:16;3.13;;;1.92;;
56171;SDS011;42052;41.634;-0.946;2023-06-26T11:40:18;2.00;;;1.80;;
56171;SDS011;42052;41.634;-0.946;2023-06-26T11:43:05;2.38;;;1.67;;
56171;SDS011;42052;41.634;-0.946;2023-06-26T11:45:51;2.50;;;1.98;;
56171;SDS011;42052;41.634;-0.946;2023-06-26T11:48:38;2.42;;;1.85;;
56171;SDS011;42052;41.634;-0.946;2023-06-26T11:51:26;2.53;;;2.03;;
56171;SDS011;42052;41.634;-0.946;2023-06-26T11:54:13;2.42;;;1.77;;
56171;SDS011;42052;41.634;-0.946;2023-06-26T11:57:00;2.15;;;1.85;;
56171;SDS011;42052;41.634;-0.946;2023-06-26T11:59:49;2.03;;;1.83;;
56171;SDS011;42052;41.634;-0.946;2023-06-26T12:02:37;2.00;;;1.80;;
56171;SDS011;42052;41.634;-0.946;2023-06-26T12:05:23;2.30;;;1.90;;
56171;SDS011;42052;41.634;-0.946;2023-06-26T12:08:10;1.70;;;1.60;;
56171;SDS011;42052;41.634;-0.946;2023-06-26T12:10:56;1.92;;;1.70;;
56171;SDS011;42052;41.634;-0.946;2023-06-26T12:13:42;2.22;;;1.77;;
56171;SDS011;42052;41.634;-0.946;2023-06-26T12:16:29;2.70;;;1.85;;
56171;SDS011;42052;41.634;-0.946;2023-06-26T12:19:16;2.10;;;1.90;;
56171;SDS011;42052;41.634;-0.946;2023-06-26T12:22:05;2.47;;;1.95;;
56171;SDS011;42052;41.634;-0.946;2023-06-26T12:24:52;1.80;;;1.50;;
56171;SDS011;42052;41.634;-0.946;2023-06-26T12:27:44;2.85;;;1.80;;
56171;SDS011;42052;41.634;-0.946;2023-06-26T12:30:31;2.20;;;1.85;;
56171;SDS011;42052;41.634;-0.946;2023-06-26T12:33:17;1.77;;;1.60;;
56171;SDS011;42052;41.634;-0.946;2023-06-26T12:36:04;2.25;;;2.00;;
56171;SDS011;42052;41.634;-0.946;2023-06-26T12:38:50;2.20;;;1.90;;
56171;SDS011;42052;41.634;-0.946;2023-06-26T12:41:45;2.30;;;1.83;;
56171;SDS011;42052;41.634;-0.946;2023-06-26T12:44:34;2.85;;;1.85;;
56171;SDS011;42052;41.634;-0.946;2023-06-26T12:47:26;2.03;;;1.73;;
56171;SDS011;42052;41.634;-0.946;2023-06-26T12:50:13;2.58;;;1.50;;
56171;SDS011;42052;41.634;-0.946;2023-06-26T12:52:59;1.95;;;1.75;;
56171;SDS011;42052;41.634;-0.946;2023-06-26T12:55:45;1.70;;;1.60;;
56171;SDS011;42052;41.634;-0.946;2023-06-26T12:58:33;2.47;;;1.95;;
56171;SDS011;42052;41.634;-0.946;2023-06-26T13:01:19;2.28;;;2.00;;
56171;SDS011;42052;41.634;-0.946;2023-06-26T13:04:05;2.08;;;1.88;;
56171;SDS011;42052;41.634;-0.946;2023-06-26T13:06:53;2.05;;;1.75;;
56171;SDS011;42052;41.634;-0.946;2023-06-26T13:09:40;2.47;;;1.83;;
56171;SDS011;42052;41.634;-0.946;2023-06-26T13:12:26;2.55;;;1.70;;
56171;SDS011;42052;41.634;-0.946;2023-06-26T13:15:12;2.72;;;1.80;;
56171;SDS011;42052;41.634;-0.946;2023-06-26T13:17:58;2.80;;;1.50;;
56171;SDS011;42052;41.634;-0.946;2023-06-26T13:20:44;1.70;;;1.60;;
56171;SDS011;42052;41.634;-0.946;2023-06-26T13:23:31;1.95;;;1.50;;
56171;SDS011;42052;41.634;-0.946;2023-06-26T13:26:17;2.22;;;1.85;;
56171;SDS011;42052;41.634;-0.946;2023-06-26T13:29:04;2.10;;;1.85;;
56171;SDS011;42052;41.634;-0.946;2023-06-26T13:31:51;2.55;;;1.83;;
56171;SDS011;42052;41.634;-0.946;2023-06-26T13:34:37;2.00;;;1.52;;
56171;SDS011;42052;41.634;-0.946;2023-06-26T13:37:23;1.60;;;1.50;;
56171;SDS011;42052;41.634;-0.946;2023-06-26T13:40:09;2.05;;;1.60;;
56171;SDS011;42052;41.634;-0.946;2023-06-26T13:42:56;1.80;;;1.70;;
56171;SDS011;42052;41.634;-0.946;2023-06-26T13:45:42;2.42;;;1.67;;
56171;SDS011;42052;41.634;-0.946;2023-06-26T13:48:28;1.65;;;1.40;;
56171;SDS011;42052;41.634;-0.946;2023-06-26T13:51:15;1.70;;;1.60;;
56171;SDS011;42052;41.634;-0.946;2023-06-26T13:54:01;1.70;;;1.60;;
56171;SDS011;42052;41.634;-0.946;2023-06-26T13:56:47;2.00;;;1.60;;
56171;SDS011;42052;41.634;-0.946;2023-06-26T13:59:33;1.90;;;1.65;;
56171;SDS011;42052;41.634;-0.946;2023-06-26T14:02:21;1.42;;;1.33;;
56171;SDS011;42052;41.634;-0.946;2023-06-26T14:05:08;1.73;;;1.60;;
56171;SDS011;42052;41.634;-0.946;2023-06-26T14:07:54;2.03;;;1.50;;
56171;SDS011;42052;41.634;-0.946;2023-06-26T14:10:40;1.90;;;1.52;;
56171;SDS011;42052;41.634;-0.946;2023-06-26T14:13:26;1.90;;;1.45;;
56171;SDS011;42052;41.634;-0.946;2023-06-26T14:16:12;1.77;;;1.65;;
56171;SDS011;42052;41.634;-0.946;2023-06-26T14:18:58;1.70;;;1.40;;
56171;SDS011;42052;41.634;-0.946;2023-06-26T14:21:44;1.60;;;1.50;;
56171;SDS011;42052;41.634;-0.946;2023-06-26T14:24:31;1.85;;;1.50;;
56171;SDS011;42052;41.634;-0.946;2023-06-26T14:27:17;1.77;;;1.48;;
56171;SDS011;42052;41.634;-0.946;2023-06-26T14:30:03;2.05;;;1.52;;
56171;SDS011;42052;41.634;-0.946;2023-06-26T14:32:50;1.95;;;1.65;;
56171;SDS011;42052;41.634;-0.946;2023-06-26T14:35:36;1.83;;;1.63;;
56171;SDS011;42052;41.634;-0.946;2023-06-26T14:38:22;2.15;;;1.50;;
56171;SDS011;42052;41.634;-0.946;2023-06-26T14:41:08;1.48;;;1.25;;
56171;SDS011;42052;41.634;-0.946;2023-06-26T14:43:54;1.60;;;1.50;;
56171;SDS011;42052;41.634;-0.946;2023-06-26T14:46:40;2.30;;;1.48;;
56171;SDS011;42052;41.634;-0.946;2023-06-26T14:49:27;1.98;;;1.67;;
56171;SDS011;42052;41.634;-0.946;2023-06-26T14:52:13;1.88;;;1.60;;
56171;SDS011;42052;41.634;-0.946;2023-06-26T14:54:59;1.73;;;1.60;;
56171;SDS011;42052;41.634;-0.946;2023-06-26T14:57:45;1.88;;;1.60;;
56171;SDS011;42052;41.634;-0.946;2023-06-26T15:00:31;1.92;;;1.60;;
56171;SDS011;42052;41.634;-0.946;2023-06-26T15:03:17;1.75;;;1.50;;
56171;SDS011;42052;41.634;-0.946;2023-06-26T15:06:03;1.83;;;1.70;;
56171;SDS011;42052;41.634;-0.946;2023-06-26T15:08:50;1.75;;;1.60;;
56171;SDS011;42052;41.634;-0.946;2023-06-26T15:11:36;1.60;;;1.50;;
56171;SDS011;42052;41.634;-0.946;2023-06-26T15:14:22;1.73;;;1.55;;
56171;SDS011;42052;41.634;-0.946;2023-06-26T15:17:08;1.88;;;1.60;;
56171;SDS011;42052;41.634;-0.946;2023-06-26T15:19:54;2.00;;;1.50;;
56171;SDS011;42052;41.634;-0.946;2023-06-26T15:22:40;1.70;;;1.60;;
56171;SDS011;42052;41.634;-0.946;2023-06-26T15:25:26;1.65;;;1.50;;
56171;SDS011;42052;41.634;-0.946;2023-06-26T15:28:13;1.90;;;1.70;;
56171;SDS011;42052;41.634;-0.946;2023-06-26T15:30:59;1.80;;;1.55;;
56171;SDS011;42052;41.634;-0.946;2023-06-26T15:33:45;1.58;;;1.45;;
56171;SDS011;42052;41.634;-0.946;2023-06-26T15:36:32;1.60;;;1.50;;
56171;SDS011;42052;41.634;-0.946;2023-06-26T15:39:18;1.85;;;1.50;;
56171;SDS011;42052;41.634;-0.946;2023-06-26T15:42:04;1.70;;;1.60;;
56171;SDS011;42052;41.634;-0.946;2023-06-26T15:44:50;2.00;;;1.60;;
56171;SDS011;42052;41.634;-0.946;2023-06-26T15:47:37;1.40;;;1.30;;
56171;SDS011;42052;41.634;-0.946;2023-06-26T15:50:23;1.40;;;1.30;;
56171;SDS011;42052;41.634;-0.946;2023-06-26T15:53:10;1.92;;;1.70;;
56171;SDS011;42052;41.634;-0.946;2023-06-26T15:56:06;1.67;;;1.48;;
56171;SDS011;42052;41.634;-0.946;2023-06-26T15:58:54;2.00;;;1.60;;
56171;SDS011;42052;41.634;-0.946;2023-06-26T16:01:40;1.92;;;1.67;;
56171;SDS011;42052;41.634;-0.946;2023-06-26T16:04:26;1.80;;;1.70;;
56171;SDS011;42052;41.634;-0.946;2023-06-26T16:07:16;2.15;;;1.80;;
56171;SDS011;42052;41.634;-0.946;2023-06-26T16:10:02;1.88;;;1.50;;
56171;SDS011;42052;41.634;-0.946;2023-06-26T16:12:48;1.60;;;1.40;;
56171;SDS011;42052;41.634;-0.946;2023-06-26T16:15:34;2.05;;;1.60;;
56171;SDS011;42052;41.634;-0.946;2023-06-26T16:18:21;1.50;;;1.40;;
56171;SDS011;42052;41.634;-0.946;2023-06-26T16:21:07;1.38;;;1.27;;
56171;SDS011;42052;41.634;-0.946;2023-06-26T16:23:53;1.60;;;1.35;;
56171;SDS011;42052;41.634;-0.946;2023-06-26T16:26:39;2.20;;;1.60;;
56171;SDS011;42052;41.634;-0.946;2023-06-26T16:29:26;2.03;;;1.60;;
56171;SDS011;42052;41.634;-0.946;2023-06-26T16:32:12;1.75;;;1.50;;
56171;SDS011;42052;41.634;-0.946;2023-06-26T16:34:58;1.50;;;1.40;;